Ventura, Iowa
Current Conditions -  °F | °C
As of 5:53 AM on Tuesday 27 Jan 2015 (Local Time) from KMCW Reporting Station
Overcast Overcast  
Wind Chill: 26°   Ceiling: 1800
Heat Index: 31°   Visibility: 10mi
Dew Point: 29°   Wind: 5mph
Humidity: 92%   Direction: 310°NW
Pressure: 30.09"   Gusts: NA
Location:  43.13°N, 93.48°W
Report Text: KMCW 271153Z AUTO 31004KT 10SM OVC018 M01/M02 A3009 RMK AO2 SLP195 T10061017 10011 21033 53015 $
Loading
Personal Weather Stations






























Interactive Weather Map New forecast layout! Learn more

10-Day Weather Forecast

Advertisements
Track Severe Weather on mobile